Volcan De Teneguia — ECLA — position and weather

sailwx.info

Track history (hours):
 
Tides and Currents Weather Stations Pressure Air Temp Water Temp Dewpoint Dewpoint Depression Visibility Wind Speed Wind Dir Waves Ship Positions

Volcan De Teneguia

Last reported at 2016-Aug-29 03:20 UTC. Time now 2016-Aug-29 21:43 UTC.
Position N 36°22' W 006°37'.

Length 145 m; draft 5.2 m.

Type: Cargo ship. MMSI: 225317000.

Date/timePositionNaut miles runAvg speedWind from/ knotsBaromVisibWave heightAir tempDewpointWater temp
2016-Aug-29 03:20N 36°22' W 006°37'3612.3
2016-Aug-29 00:26N 35°56' W 007°06'1212.1
2016-Aug-28 23:26N 35°48' W 007°18'1112.2
2016-Aug-28 22:33N 35°41' W 007°27'5412.3
2016-Aug-28 18:12N 35°03' W 008°14'14712.5
2016-Aug-28 06:25N 33°20' W 010°21'5413.6
2016-Aug-28 02:27N 32°42' W 011°07'1213.9
2016-Aug-28 01:33N 32°34' W 011°17'1413.9
2016-Aug-28 00:33N 32°24' W 011°29'1413.7
2016-Aug-27 23:33N 32°15' W 011°41'1613.5
2016-Aug-27 22:21N 32°03' W 011°55'1113.3
2016-Aug-27 21:33N 31°56' W 012°04'1313.3
2016-Aug-27 20:33N 31°47' W 012°15'1413.2
2016-Aug-27 19:28N 31°37' W 012°27'1313.4
2016-Aug-27 18:29N 31°27' W 012°38'1613.6
2016-Aug-27 17:17N 31°16' W 012°51'1013.6
2016-Aug-27 16:33N 31°09' W 012°60'7414.1
2016-Aug-27 11:17N 30°17' W 014°01'1114.3
2016-Aug-27 10:33N 30°10' W 014°10'1414.2
2016-Aug-27 09:33N 30°00' W 014°22'1514.1
2016-Aug-27 08:30N 29°50' W 014°34'1314.0
2016-Aug-27 07:33N 29°41' W 014°45'1313.5
2016-Aug-27 06:33N 29°31' W 014°56'2713.6
2016-Aug-27 04:33N 29°12' W 015°18'1413.6
2016-Aug-27 03:32N 29°02' W 015°29'1313.3
2016-Aug-27 02:33N 28°53' W 015°40'1313.3
2016-Aug-27 01:33N 28°44' W 015°51'1313.3
2016-Aug-27 00:33N 28°34' W 016°01'1212.0
2016-Aug-26 23:32N 28°29' W 016°14'0 0.2
2016-Aug-26 21:26N 28°29' W 016°14'0 0.0
2016-Aug-26 20:29N 28°29' W 016°14'0 0.0
2016-Aug-26 19:29N 28°29' W 016°14'7 7.9
2016-Aug-26 18:33N 28°25' W 016°07'1414.1
2016-Aug-26 17:33N 28°20' W 015°52'1414.4
2016-Aug-26 16:33N 28°16' W 015°36'1313.5
2016-Aug-26 15:33N 28°10' W 015°23'2 2.2
2016-Aug-26 14:31N 28°09' W 015°25'0 0.0
2016-Aug-26 13:31N 28°09' W 015°25'0 0.0
2016-Aug-26 12:31N 28°09' W 015°25'0 0.0
2016-Aug-26 11:31N 28°09' W 015°25'0 0.0
2016-Aug-26 10:31N 28°09' W 015°25'0 0.0
2016-Aug-26 09:31N 28°09' W 015°25'0 0.0
2016-Aug-26 08:31N 28°09' W 015°25'0 0.0
2016-Aug-26 07:31N 28°09' W 015°25'0 0.0
2016-Aug-26 06:33N 28°09' W 015°25'8 3.9
2016-Aug-26 04:33N 28°17' W 015°25'1111.2
2016-Aug-26 03:33N 28°18' W 015°38'1111.0
2016-Aug-26 02:32N 28°21' W 015°50'1110.9
2016-Aug-26 01:33N 28°24' W 016°02'1211.3
2016-Aug-26 00:32N 28°29' W 016°14'1 0.5
2016-Aug-25 23:32N 28°29' W 016°14'0 0.0
2016-Aug-25 22:20N 28°29' W 016°14'0 0.0
2016-Aug-25 21:26N 28°29' W 016°14'0 0.0
2016-Aug-25 20:26N 28°29' W 016°14'4 4.3
2016-Aug-25 19:33N 28°29' W 016°09'1714.3
2016-Aug-25 18:23N 28°40' W 015°55'1315.0
2016-Aug-25 17:32N 28°49' W 015°45'1514.8
2016-Aug-25 16:33N 28°59' W 015°33'1614.7
2016-Aug-25 15:26N 29°11' W 015°19'1514.7
2016-Aug-25 14:23N 29°22' W 015°07'2914.2
2016-Aug-25 12:19N 29°42' W 014°42'25214.8
2016-Aug-24 19:16N 32°38' W 011°12'3315.2
2016-Aug-24 17:07N 33°01' W 010°43'4015.2
2016-Aug-24 14:28N 33°30' W 010°10'1314.6
2016-Aug-24 13:33N 33°39' W 009°58'1614.6
2016-Aug-24 12:27N 33°50' W 009°44'1314.7
2016-Aug-24 11:33N 33°60' W 009°33'1614.6
2016-Aug-24 10:28N 34°11' W 009°19'1314.5
2016-Aug-24 09:33N 34°20' W 009°08'1514.6
2016-Aug-24 08:31N 34°31' W 008°55'5814.8
2016-Aug-24 04:33N 35°12' W 008°04'  
2016-Aug-21 20:21N 35°26' W 007°48'1111.7
2016-Aug-21 19:23N 35°19' W 007°59'2712.8
2016-Aug-21 17:17N 35°00' W 008°23'32713.1
2016-Aug-20 16:21N 31°10' W 012°59'6014.3
2016-Aug-20 12:08N 30°28' W 013°49'914.6
2016-Aug-20 11:30N 30°21' W 013°56'1414.4
2016-Aug-20 10:33N 30°11' W 014°08'1414.2
2016-Aug-20 09:33N 30°02' W 014°19'1414.3
2016-Aug-20 08:33N 29°52' W 014°31'1514.2
2016-Aug-20 07:32N 29°42' W 014°43'1414.5
2016-Aug-20 06:33N 29°32' W 014°55'1414.1
2016-Aug-20 05:33N 29°22' W 015°06'1614.1
2016-Aug-20 04:28N 29°11' W 015°19'1314.0
2016-Aug-20 03:33N 29°02' W 015°29'1414.0
2016-Aug-20 02:33N 28°52' W 015°41'1414.2
2016-Aug-20 01:33N 28°42' W 015°52'1414.2
2016-Aug-20 00:33N 28°33' W 016°04'9 9.3
2016-Aug-19 23:33N 28°29' W 016°14'0 0.0
2016-Aug-19 22:33N 28°29' W 016°14'0 0.0
2016-Aug-19 20:21N 28°29' W 016°14'0 0.0
2016-Aug-19 17:34N 28°29' W 016°14'9 8.4
2016-Aug-19 16:33N 28°25' W 016°05'1414.2
2016-Aug-19 15:33N 28°21' W 015°50'1414.6
2016-Aug-19 14:33N 28°16' W 015°35'1312.6
2016-Aug-19 13:33N 28°08' W 015°23'2 1.6
2016-Aug-19 12:31N 28°09' W 015°25'0 0.0
2016-Aug-19 11:31N 28°09' W 015°25'0 0.0
2016-Aug-19 10:31N 28°09' W 015°25'0 0.0
2016-Aug-19 09:31N 28°09' W 015°25'0 0.0
2016-Aug-19 08:31N 28°09' W 015°25'0 0.0
2016-Aug-19 07:31N 28°09' W 015°25'0 0.0
2016-Aug-19 06:31N 28°09' W 015°25'2 2.0
2016-Aug-19 05:33N 28°07' W 015°24'6 6.2
2016-Aug-19 04:33N 28°12' W 015°27'1111.4
2016-Aug-19 03:33N 28°13' W 015°40'  
Track history (hours):
 
Tides and Currents Weather Stations Pressure Air Temp Water Temp Dewpoint Dewpoint Depression Visibility Wind Speed Wind Dir Waves Ship Positions

Volcan De Teneguia

Last reported at 2016-Aug-29 03:20 UTC. Time now 2016-Aug-29 21:43 UTC.
Position N 36°22' W 006°37'.

Length 145 m; draft 5.2 m.

Type: Cargo ship. MMSI: 225317000.

Date/timePositionNaut miles runAvg speedWind from/ knotsBaromVisibWave heightAir tempDewpointWater temp
2016-Aug-29 03:20N 36°22' W 006°37'3612.3
2016-Aug-29 00:26N 35°56' W 007°06'1212.1
2016-Aug-28 23:26N 35°48' W 007°18'1112.2
2016-Aug-28 22:33N 35°41' W 007°27'5412.3
2016-Aug-28 18:12N 35°03' W 008°14'14712.5
2016-Aug-28 06:25N 33°20' W 010°21'5413.6
2016-Aug-28 02:27N 32°42' W 011°07'1213.9
2016-Aug-28 01:33N 32°34' W 011°17'1413.9
2016-Aug-28 00:33N 32°24' W 011°29'1413.7
2016-Aug-27 23:33N 32°15' W 011°41'1613.5
2016-Aug-27 22:21N 32°03' W 011°55'1113.3
2016-Aug-27 21:33N 31°56' W 012°04'1313.3
2016-Aug-27 20:33N 31°47' W 012°15'1413.2
2016-Aug-27 19:28N 31°37' W 012°27'1313.4
2016-Aug-27 18:29N 31°27' W 012°38'1613.6
2016-Aug-27 17:17N 31°16' W 012°51'1013.6
2016-Aug-27 16:33N 31°09' W 012°60'7414.1
2016-Aug-27 11:17N 30°17' W 014°01'1114.3
2016-Aug-27 10:33N 30°10' W 014°10'1414.2
2016-Aug-27 09:33N 30°00' W 014°22'1514.1
2016-Aug-27 08:30N 29°50' W 014°34'1314.0
2016-Aug-27 07:33N 29°41' W 014°45'1313.5
2016-Aug-27 06:33N 29°31' W 014°56'2713.6
2016-Aug-27 04:33N 29°12' W 015°18'1413.6
2016-Aug-27 03:32N 29°02' W 015°29'1313.3
2016-Aug-27 02:33N 28°53' W 015°40'1313.3
2016-Aug-27 01:33N 28°44' W 015°51'1313.3
2016-Aug-27 00:33N 28°34' W 016°01'1212.0
2016-Aug-26 23:32N 28°29' W 016°14'0 0.2
2016-Aug-26 21:26N 28°29' W 016°14'0 0.0
2016-Aug-26 20:29N 28°29' W 016°14'0 0.0
2016-Aug-26 19:29N 28°29' W 016°14'7 7.9
2016-Aug-26 18:33N 28°25' W 016°07'1414.1
2016-Aug-26 17:33N 28°20' W 015°52'1414.4
2016-Aug-26 16:33N 28°16' W 015°36'1313.5
2016-Aug-26 15:33N 28°10' W 015°23'2 2.2
2016-Aug-26 14:31N 28°09' W 015°25'0 0.0
2016-Aug-26 13:31N 28°09' W 015°25'0 0.0
2016-Aug-26 12:31N 28°09' W 015°25'0 0.0
2016-Aug-26 11:31N 28°09' W 015°25'0 0.0
2016-Aug-26 10:31N 28°09' W 015°25'0 0.0
2016-Aug-26 09:31N 28°09' W 015°25'0 0.0
2016-Aug-26 08:31N 28°09' W 015°25'0 0.0
2016-Aug-26 07:31N 28°09' W 015°25'0 0.0
2016-Aug-26 06:33N 28°09' W 015°25'8 3.9
2016-Aug-26 04:33N 28°17' W 015°25'1111.2
2016-Aug-26 03:33N 28°18' W 015°38'1111.0
2016-Aug-26 02:32N 28°21' W 015°50'1110.9
2016-Aug-26 01:33N 28°24' W 016°02'1211.3
2016-Aug-26 00:32N 28°29' W 016°14'1 0.5
2016-Aug-25 23:32N 28°29' W 016°14'0 0.0
2016-Aug-25 22:20N 28°29' W 016°14'0 0.0
2016-Aug-25 21:26N 28°29' W 016°14'0 0.0
2016-Aug-25 20:26N 28°29' W 016°14'4 4.3
2016-Aug-25 19:33N 28°29' W 016°09'1714.3
2016-Aug-25 18:23N 28°40' W 015°55'1315.0
2016-Aug-25 17:32N 28°49' W 015°45'1514.8
2016-Aug-25 16:33N 28°59' W 015°33'1614.7
2016-Aug-25 15:26N 29°11' W 015°19'1514.7
2016-Aug-25 14:23N 29°22' W 015°07'2914.2
2016-Aug-25 12:19N 29°42' W 014°42'25214.8
2016-Aug-24 19:16N 32°38' W 011°12'3315.2
2016-Aug-24 17:07N 33°01' W 010°43'4015.2
2016-Aug-24 14:28N 33°30' W 010°10'1314.6
2016-Aug-24 13:33N 33°39' W 009°58'1614.6
2016-Aug-24 12:27N 33°50' W 009°44'1314.7
2016-Aug-24 11:33N 33°60' W 009°33'1614.6
2016-Aug-24 10:28N 34°11' W 009°19'1314.5
2016-Aug-24 09:33N 34°20' W 009°08'1514.6
2016-Aug-24 08:31N 34°31' W 008°55'5814.8
2016-Aug-24 04:33N 35°12' W 008°04'  
2016-Aug-21 20:21N 35°26' W 007°48'1111.7
2016-Aug-21 19:23N 35°19' W 007°59'2712.8
2016-Aug-21 17:17N 35°00' W 008°23'32713.1
2016-Aug-20 16:21N 31°10' W 012°59'6014.3
2016-Aug-20 12:08N 30°28' W 013°49'914.6
2016-Aug-20 11:30N 30°21' W 013°56'1414.4
2016-Aug-20 10:33N 30°11' W 014°08'1414.2
2016-Aug-20 09:33N 30°02' W 014°19'1414.3
2016-Aug-20 08:33N 29°52' W 014°31'1514.2
2016-Aug-20 07:32N 29°42' W 014°43'1414.5
2016-Aug-20 06:33N 29°32' W 014°55'1414.1
2016-Aug-20 05:33N 29°22' W 015°06'1614.1
2016-Aug-20 04:28N 29°11' W 015°19'1314.0
2016-Aug-20 03:33N 29°02' W 015°29'1414.0
2016-Aug-20 02:33N 28°52' W 015°41'1414.2
2016-Aug-20 01:33N 28°42' W 015°52'1414.2
2016-Aug-20 00:33N 28°33' W 016°04'9 9.3
2016-Aug-19 23:33N 28°29' W 016°14'0 0.0
2016-Aug-19 22:33N 28°29' W 016°14'0 0.0
2016-Aug-19 20:21N 28°29' W 016°14'0 0.0
2016-Aug-19 17:34N 28°29' W 016°14'9 8.4
2016-Aug-19 16:33N 28°25' W 016°05'1414.2
2016-Aug-19 15:33N 28°21' W 015°50'1414.6
2016-Aug-19 14:33N 28°16' W 015°35'1312.6
2016-Aug-19 13:33N 28°08' W 015°23'2 1.6
2016-Aug-19 12:31N 28°09' W 015°25'0 0.0
2016-Aug-19 11:31N 28°09' W 015°25'0 0.0
2016-Aug-19 10:31N 28°09' W 015°25'0 0.0
2016-Aug-19 09:31N 28°09' W 015°25'0 0.0
2016-Aug-19 08:31N 28°09' W 015°25'0 0.0
2016-Aug-19 07:31N 28°09' W 015°25'0 0.0
2016-Aug-19 06:31N 28°09' W 015°25'2 2.0
2016-Aug-19 05:33N 28°07' W 015°24'6 6.2
2016-Aug-19 04:33N 28°12' W 015°27'1111.4
2016-Aug-19 03:33N 28°13' W 015°40'  

Dump ship's entire track history